sensor_id;sensor_type;location;lat;lon;timestamp;P1;durP1;ratioP1;P2;durP2;ratioP2
79054;SDS011;68452;47.186;-1.528;2023-04-06T00:01:56;14.43;;;8.23;;
79054;SDS011;68452;47.186;-1.528;2023-04-06T00:04:22;18.42;;;8.02;;
79054;SDS011;68452;47.186;-1.528;2023-04-06T00:06:47;14.37;;;8.07;;
79054;SDS011;68452;47.186;-1.528;2023-04-06T00:09:13;17.17;;;8.02;;
79054;SDS011;68452;47.186;-1.528;2023-04-06T00:11:39;12.60;;;7.50;;
79054;SDS011;68452;47.186;-1.528;2023-04-06T00:14:05;16.70;;;8.47;;
79054;SDS011;68452;47.186;-1.528;2023-04-06T00:16:31;13.95;;;8.02;;
79054;SDS011;68452;47.186;-1.528;2023-04-06T00:18:57;13.73;;;7.50;;
79054;SDS011;68452;47.186;-1.528;2023-04-06T00:21:23;15.93;;;8.77;;
79054;SDS011;68452;47.186;-1.528;2023-04-06T00:23:50;17.20;;;10.07;;
79054;SDS011;68452;47.186;-1.528;2023-04-06T00:26:16;15.13;;;8.82;;
79054;SDS011;68452;47.186;-1.528;2023-04-06T00:28:43;16.48;;;9.02;;
79054;SDS011;68452;47.186;-1.528;2023-04-06T00:31:09;17.90;;;8.55;;
79054;SDS011;68452;47.186;-1.528;2023-04-06T00:33:35;16.77;;;9.03;;
79054;SDS011;68452;47.186;-1.528;2023-04-06T00:36:01;14.40;;;7.82;;
79054;SDS011;68452;47.186;-1.528;2023-04-06T00:38:27;15.70;;;8.57;;
79054;SDS011;68452;47.186;-1.528;2023-04-06T00:40:53;15.77;;;8.30;;
79054;SDS011;68452;47.186;-1.528;2023-04-06T00:43:18;14.75;;;8.38;;
79054;SDS011;68452;47.186;-1.528;2023-04-06T00:45:45;15.35;;;7.60;;
79054;SDS011;68452;47.186;-1.528;2023-04-06T00:48:11;21.43;;;8.33;;
79054;SDS011;68452;47.186;-1.528;2023-04-06T00:50:37;15.85;;;7.57;;
79054;SDS011;68452;47.186;-1.528;2023-04-06T00:53:02;15.45;;;8.27;;
79054;SDS011;68452;47.186;-1.528;2023-04-06T00:55:28;15.83;;;7.90;;
79054;SDS011;68452;47.186;-1.528;2023-04-06T00:57:56;15.95;;;7.78;;
79054;SDS011;68452;47.186;-1.528;2023-04-06T01:00:23;14.45;;;6.95;;
79054;SDS011;68452;47.186;-1.528;2023-04-06T01:02:49;16.67;;;7.10;;
79054;SDS011;68452;47.186;-1.528;2023-04-06T01:05:15;13.90;;;7.43;;
79054;SDS011;68452;47.186;-1.528;2023-04-06T01:07:41;12.65;;;7.15;;
79054;SDS011;68452;47.186;-1.528;2023-04-06T01:10:07;14.25;;;7.80;;
79054;SDS011;68452;47.186;-1.528;2023-04-06T01:12:33;14.40;;;7.85;;
79054;SDS011;68452;47.186;-1.528;2023-04-06T01:14:59;14.37;;;7.10;;
79054;SDS011;68452;47.186;-1.528;2023-04-06T01:17:25;13.63;;;7.60;;
79054;SDS011;68452;47.186;-1.528;2023-04-06T01:19:51;15.30;;;7.30;;
79054;SDS011;68452;47.186;-1.528;2023-04-06T01:22:19;17.50;;;8.45;;
79054;SDS011;68452;47.186;-1.528;2023-04-06T01:24:45;17.93;;;7.87;;
79054;SDS011;68452;47.186;-1.528;2023-04-06T01:27:11;14.80;;;7.95;;
79054;SDS011;68452;47.186;-1.528;2023-04-06T01:29:38;15.10;;;8.23;;
79054;SDS011;68452;47.186;-1.528;2023-04-06T01:32:07;14.35;;;7.47;;
79054;SDS011;68452;47.186;-1.528;2023-04-06T01:34:33;16.58;;;6.80;;
79054;SDS011;68452;47.186;-1.528;2023-04-06T01:36:58;14.70;;;7.33;;
79054;SDS011;68452;47.186;-1.528;2023-04-06T01:39:24;13.60;;;7.00;;
79054;SDS011;68452;47.186;-1.528;2023-04-06T01:41:51;13.98;;;7.65;;
79054;SDS011;68452;47.186;-1.528;2023-04-06T01:44:17;13.60;;;8.43;;
79054;SDS011;68452;47.186;-1.528;2023-04-06T01:46:44;16.27;;;7.53;;
79054;SDS011;68452;47.186;-1.528;2023-04-06T01:49:10;14.90;;;8.38;;
79054;SDS011;68452;47.186;-1.528;2023-04-06T01:51:37;15.27;;;8.23;;
79054;SDS011;68452;47.186;-1.528;2023-04-06T01:54:03;14.48;;;7.38;;
79054;SDS011;68452;47.186;-1.528;2023-04-06T01:56:29;15.48;;;8.52;;
79054;SDS011;68452;47.186;-1.528;2023-04-06T01:58:55;14.73;;;7.53;;
79054;SDS011;68452;47.186;-1.528;2023-04-06T02:01:21;14.80;;;8.57;;
79054;SDS011;68452;47.186;-1.528;2023-04-06T02:03:47;15.68;;;9.52;;
79054;SDS011;68452;47.186;-1.528;2023-04-06T02:06:13;16.33;;;8.30;;
79054;SDS011;68452;47.186;-1.528;2023-04-06T02:08:38;14.93;;;7.75;;
79054;SDS011;68452;47.186;-1.528;2023-04-06T02:11:04;15.98;;;8.90;;
79054;SDS011;68452;47.186;-1.528;2023-04-06T02:13:30;16.35;;;8.80;;
79054;SDS011;68452;47.186;-1.528;2023-04-06T02:15:56;16.37;;;7.90;;
79054;SDS011;68452;47.186;-1.528;2023-04-06T02:18:22;17.30;;;9.35;;
79054;SDS011;68452;47.186;-1.528;2023-04-06T02:20:48;15.07;;;8.43;;
79054;SDS011;68452;47.186;-1.528;2023-04-06T02:23:14;17.33;;;8.60;;
79054;SDS011;68452;47.186;-1.528;2023-04-06T02:25:40;17.30;;;8.05;;
79054;SDS011;68452;47.186;-1.528;2023-04-06T02:28:06;15.65;;;8.60;;
79054;SDS011;68452;47.186;-1.528;2023-04-06T02:30:32;15.40;;;8.32;;
79054;SDS011;68452;47.186;-1.528;2023-04-06T02:32:59;17.10;;;8.43;;
79054;SDS011;68452;47.186;-1.528;2023-04-06T02:35:27;20.70;;;8.82;;
79054;SDS011;68452;47.186;-1.528;2023-04-06T02:37:53;15.43;;;8.43;;
79054;SDS011;68452;47.186;-1.528;2023-04-06T02:40:19;15.43;;;8.10;;
79054;SDS011;68452;47.186;-1.528;2023-04-06T02:42:45;16.27;;;9.07;;
79054;SDS011;68452;47.186;-1.528;2023-04-06T02:45:11;15.07;;;7.87;;
79054;SDS011;68452;47.186;-1.528;2023-04-06T02:47:37;18.05;;;8.55;;
79054;SDS011;68452;47.186;-1.528;2023-04-06T02:50:03;14.70;;;8.50;;
79054;SDS011;68452;47.186;-1.528;2023-04-06T02:52:30;18.20;;;9.32;;
79054;SDS011;68452;47.186;-1.528;2023-04-06T02:54:56;12.90;;;8.27;;
79054;SDS011;68452;47.186;-1.528;2023-04-06T02:57:22;17.45;;;9.30;;
79054;SDS011;68452;47.186;-1.528;2023-04-06T02:59:48;15.77;;;8.75;;
79054;SDS011;68452;47.186;-1.528;2023-04-06T03:02:14;17.30;;;8.90;;
79054;SDS011;68452;47.186;-1.528;2023-04-06T03:04:40;18.02;;;9.20;;
79054;SDS011;68452;47.186;-1.528;2023-04-06T03:07:07;18.70;;;9.32;;
79054;SDS011;68452;47.186;-1.528;2023-04-06T03:09:33;14.60;;;8.35;;
79054;SDS011;68452;47.186;-1.528;2023-04-06T03:11:59;16.97;;;8.57;;
79054;SDS011;68452;47.186;-1.528;2023-04-06T03:14:25;16.33;;;8.50;;
79054;SDS011;68452;47.186;-1.528;2023-04-06T03:16:52;17.17;;;8.68;;
79054;SDS011;68452;47.186;-1.528;2023-04-06T03:19:18;16.10;;;8.43;;
79054;SDS011;68452;47.186;-1.528;2023-04-06T03:21:44;20.17;;;9.10;;
79054;SDS011;68452;47.186;-1.528;2023-04-06T03:24:09;14.93;;;8.85;;
79054;SDS011;68452;47.186;-1.528;2023-04-06T03:26:35;18.33;;;9.30;;
79054;SDS011;68452;47.186;-1.528;2023-04-06T03:29:01;16.67;;;10.07;;
79054;SDS011;68452;47.186;-1.528;2023-04-06T03:31:27;16.10;;;9.35;;
79054;SDS011;68452;47.186;-1.528;2023-04-06T03:33:53;15.70;;;8.60;;
79054;SDS011;68452;47.186;-1.528;2023-04-06T03:36:19;17.65;;;9.00;;
79054;SDS011;68452;47.186;-1.528;2023-04-06T03:38:45;15.93;;;7.80;;
79054;SDS011;68452;47.186;-1.528;2023-04-06T03:41:11;15.82;;;8.32;;
79054;SDS011;68452;47.186;-1.528;2023-04-06T03:43:36;19.93;;;9.13;;
79054;SDS011;68452;47.186;-1.528;2023-04-06T03:46:02;17.00;;;9.38;;
79054;SDS011;68452;47.186;-1.528;2023-04-06T03:48:28;13.83;;;8.27;;
79054;SDS011;68452;47.186;-1.528;2023-04-06T03:50:54;15.23;;;9.25;;
79054;SDS011;68452;47.186;-1.528;2023-04-06T03:53:20;16.13;;;8.63;;
79054;SDS011;68452;47.186;-1.528;2023-04-06T03:55:46;15.73;;;8.67;;
79054;SDS011;68452;47.186;-1.528;2023-04-06T03:58:12;15.80;;;8.50;;
79054;SDS011;68452;47.186;-1.528;2023-04-06T04:00:37;19.48;;;8.82;;
79054;SDS011;68452;47.186;-1.528;2023-04-06T04:03:03;16.30;;;9.37;;
79054;SDS011;68452;47.186;-1.528;2023-04-06T04:05:29;17.52;;;8.60;;
79054;SDS011;68452;47.186;-1.528;2023-04-06T04:07:55;15.43;;;8.75;;
79054;SDS011;68452;47.186;-1.528;2023-04-06T04:10:21;16.70;;;8.43;;
79054;SDS011;68452;47.186;-1.528;2023-04-06T04:12:47;19.73;;;8.50;;
79054;SDS011;68452;47.186;-1.528;2023-04-06T04:15:12;20.42;;;9.63;;
79054;SDS011;68452;47.186;-1.528;2023-04-06T04:17:38;18.00;;;8.60;;
79054;SDS011;68452;47.186;-1.528;2023-04-06T04:20:04;15.10;;;8.20;;
79054;SDS011;68452;47.186;-1.528;2023-04-06T04:22:31;15.13;;;8.40;;
79054;SDS011;68452;47.186;-1.528;2023-04-06T04:24:57;16.92;;;9.13;;
79054;SDS011;68452;47.186;-1.528;2023-04-06T04:27:23;14.47;;;8.10;;
79054;SDS011;68452;47.186;-1.528;2023-04-06T04:29:49;16.92;;;8.95;;
79054;SDS011;68452;47.186;-1.528;2023-04-06T04:32:15;13.45;;;7.38;;
79054;SDS011;68452;47.186;-1.528;2023-04-06T04:34:41;16.10;;;8.52;;
79054;SDS011;68452;47.186;-1.528;2023-04-06T04:37:07;17.97;;;8.87;;
79054;SDS011;68452;47.186;-1.528;2023-04-06T04:39:33;16.38;;;8.30;;
79054;SDS011;68452;47.186;-1.528;2023-04-06T04:41:59;19.02;;;9.38;;
79054;SDS011;68452;47.186;-1.528;2023-04-06T04:44:24;18.07;;;9.17;;
79054;SDS011;68452;47.186;-1.528;2023-04-06T04:46:50;16.98;;;8.57;;
79054;SDS011;68452;47.186;-1.528;2023-04-06T04:49:16;16.73;;;8.93;;
79054;SDS011;68452;47.186;-1.528;2023-04-06T04:51:42;16.80;;;8.40;;
79054;SDS011;68452;47.186;-1.528;2023-04-06T04:54:08;14.40;;;8.32;;
79054;SDS011;68452;47.186;-1.528;2023-04-06T04:56:34;17.48;;;9.10;;
79054;SDS011;68452;47.186;-1.528;2023-04-06T04:59:00;17.30;;;9.90;;
79054;SDS011;68452;47.186;-1.528;2023-04-06T05:01:25;18.30;;;9.30;;
79054;SDS011;68452;47.186;-1.528;2023-04-06T05:03:51;16.23;;;8.30;;
79054;SDS011;68452;47.186;-1.528;2023-04-06T05:06:17;17.15;;;9.68;;
79054;SDS011;68452;47.186;-1.528;2023-04-06T05:08:44;18.98;;;10.13;;
79054;SDS011;68452;47.186;-1.528;2023-04-06T05:11:10;15.30;;;8.30;;
79054;SDS011;68452;47.186;-1.528;2023-04-06T05:13:36;17.20;;;8.53;;
79054;SDS011;68452;47.186;-1.528;2023-04-06T05:16:02;18.73;;;9.85;;
79054;SDS011;68452;47.186;-1.528;2023-04-06T05:18:28;18.33;;;10.27;;
79054;SDS011;68452;47.186;-1.528;2023-04-06T05:20:54;20.95;;;10.13;;
79054;SDS011;68452;47.186;-1.528;2023-04-06T05:23:20;16.90;;;9.53;;
79054;SDS011;68452;47.186;-1.528;2023-04-06T05:25:46;17.73;;;9.57;;
79054;SDS011;68452;47.186;-1.528;2023-04-06T05:28:12;15.43;;;9.80;;
79054;SDS011;68452;47.186;-1.528;2023-04-06T05:30:42;20.38;;;9.65;;
79054;SDS011;68452;47.186;-1.528;2023-04-06T05:33:09;19.10;;;10.80;;
79054;SDS011;68452;47.186;-1.528;2023-04-06T05:35:35;20.63;;;10.63;;
79054;SDS011;68452;47.186;-1.528;2023-04-06T05:38:01;20.55;;;10.60;;
79054;SDS011;68452;47.186;-1.528;2023-04-06T05:40:27;22.83;;;10.75;;
79054;SDS011;68452;47.186;-1.528;2023-04-06T05:42:53;19.50;;;10.90;;
79054;SDS011;68452;47.186;-1.528;2023-04-06T05:45:19;18.73;;;10.47;;
79054;SDS011;68452;47.186;-1.528;2023-04-06T05:47:46;16.35;;;9.35;;
79054;SDS011;68452;47.186;-1.528;2023-04-06T05:50:12;14.00;;;8.70;;
79054;SDS011;68452;47.186;-1.528;2023-04-06T05:52:40;21.83;;;11.00;;
79054;SDS011;68452;47.186;-1.528;2023-04-06T05:55:08;16.83;;;10.27;;
79054;SDS011;68452;47.186;-1.528;2023-04-06T05:57:35;22.55;;;10.30;;
79054;SDS011;68452;47.186;-1.528;2023-04-06T06:00:00;17.50;;;10.40;;
79054;SDS011;68452;47.186;-1.528;2023-04-06T06:02:30;16.98;;;10.05;;
79054;SDS011;68452;47.186;-1.528;2023-04-06T06:04:56;17.83;;;9.50;;
79054;SDS011;68452;47.186;-1.528;2023-04-06T06:07:22;18.83;;;9.98;;
79054;SDS011;68452;47.186;-1.528;2023-04-06T06:09:48;20.10;;;10.30;;
79054;SDS011;68452;47.186;-1.528;2023-04-06T06:12:15;18.63;;;10.77;;
79054;SDS011;68452;47.186;-1.528;2023-04-06T06:14:41;20.83;;;10.60;;
79054;SDS011;68452;47.186;-1.528;2023-04-06T06:17:06;20.00;;;10.52;;
79054;SDS011;68452;47.186;-1.528;2023-04-06T06:19:33;16.55;;;9.68;;
79054;SDS011;68452;47.186;-1.528;2023-04-06T06:21:58;17.25;;;10.18;;
79054;SDS011;68452;47.186;-1.528;2023-04-06T06:24:27;18.50;;;10.53;;
79054;SDS011;68452;47.186;-1.528;2023-04-06T06:26:53;15.52;;;9.60;;
79054;SDS011;68452;47.186;-1.528;2023-04-06T06:29:19;15.80;;;9.88;;
79054;SDS011;68452;47.186;-1.528;2023-04-06T06:31:44;16.83;;;8.90;;
79054;SDS011;68452;47.186;-1.528;2023-04-06T06:34:10;16.60;;;9.60;;
79054;SDS011;68452;47.186;-1.528;2023-04-06T06:36:37;16.88;;;9.60;;
79054;SDS011;68452;47.186;-1.528;2023-04-06T06:39:03;17.52;;;9.60;;
79054;SDS011;68452;47.186;-1.528;2023-04-06T06:41:29;16.27;;;9.80;;
79054;SDS011;68452;47.186;-1.528;2023-04-06T06:43:55;20.65;;;9.88;;
79054;SDS011;68452;47.186;-1.528;2023-04-06T06:46:21;14.80;;;9.45;;
79054;SDS011;68452;47.186;-1.528;2023-04-06T06:48:47;18.80;;;9.87;;
79054;SDS011;68452;47.186;-1.528;2023-04-06T06:51:12;16.40;;;9.98;;
79054;SDS011;68452;47.186;-1.528;2023-04-06T06:53:38;14.90;;;9.60;;
79054;SDS011;68452;47.186;-1.528;2023-04-06T06:56:04;19.17;;;9.70;;
79054;SDS011;68452;47.186;-1.528;2023-04-06T06:58:30;15.48;;;9.27;;
79054;SDS011;68452;47.186;-1.528;2023-04-06T07:00:59;20.83;;;9.83;;
79054;SDS011;68452;47.186;-1.528;2023-04-06T07:03:25;15.52;;;9.30;;
79054;SDS011;68452;47.186;-1.528;2023-04-06T07:05:51;14.70;;;8.32;;
79054;SDS011;68452;47.186;-1.528;2023-04-06T07:08:20;15.80;;;9.10;;
79054;SDS011;68452;47.186;-1.528;2023-04-06T07:10:47;16.60;;;8.43;;
79054;SDS011;68452;47.186;-1.528;2023-04-06T07:13:13;16.40;;;8.77;;
79054;SDS011;68452;47.186;-1.528;2023-04-06T07:15:46;18.98;;;8.73;;
79054;SDS011;68452;47.186;-1.528;2023-04-06T07:18:12;15.55;;;9.02;;
79054;SDS011;68452;47.186;-1.528;2023-04-06T07:20:38;17.30;;;8.40;;
79054;SDS011;68452;47.186;-1.528;2023-04-06T07:23:04;15.17;;;8.10;;
79054;SDS011;68452;47.186;-1.528;2023-04-06T07:25:30;16.90;;;8.32;;
79054;SDS011;68452;47.186;-1.528;2023-04-06T07:27:56;14.45;;;7.68;;
79054;SDS011;68452;47.186;-1.528;2023-04-06T07:30:22;12.63;;;7.40;;
79054;SDS011;68452;47.186;-1.528;2023-04-06T07:32:50;15.77;;;7.95;;
79054;SDS011;68452;47.186;-1.528;2023-04-06T07:35:15;18.35;;;6.90;;
79054;SDS011;68452;47.186;-1.528;2023-04-06T07:37:41;12.57;;;6.90;;
79054;SDS011;68452;47.186;-1.528;2023-04-06T07:40:07;16.08;;;7.78;;
79054;SDS011;68452;47.186;-1.528;2023-04-06T07:42:33;12.27;;;7.03;;
79054;SDS011;68452;47.186;-1.528;2023-04-06T07:44:59;12.35;;;7.30;;
79054;SDS011;68452;47.186;-1.528;2023-04-06T07:47:25;15.10;;;7.73;;
79054;SDS011;68452;47.186;-1.528;2023-04-06T07:49:51;15.18;;;7.72;;
79054;SDS011;68452;47.186;-1.528;2023-04-06T07:52:19;15.20;;;7.95;;
79054;SDS011;68452;47.186;-1.528;2023-04-06T07:54:45;14.13;;;7.77;;
79054;SDS011;68452;47.186;-1.528;2023-04-06T07:57:11;13.00;;;6.97;;
79054;SDS011;68452;47.186;-1.528;2023-04-06T07:59:37;9.95;;;6.15;;
79054;SDS011;68452;47.186;-1.528;2023-04-06T08:02:02;13.53;;;7.23;;
79054;SDS011;68452;47.186;-1.528;2023-04-06T08:04:28;14.57;;;6.85;;
79054;SDS011;68452;47.186;-1.528;2023-04-06T08:06:54;13.88;;;7.38;;
79054;SDS011;68452;47.186;-1.528;2023-04-06T08:09:20;12.67;;;6.90;;
79054;SDS011;68452;47.186;-1.528;2023-04-06T08:11:46;15.25;;;7.13;;
79054;SDS011;68452;47.186;-1.528;2023-04-06T08:14:13;12.73;;;6.90;;
79054;SDS011;68452;47.186;-1.528;2023-04-06T08:16:41;13.18;;;7.30;;
79054;SDS011;68452;47.186;-1.528;2023-04-06T08:19:07;15.93;;;7.33;;
79054;SDS011;68452;47.186;-1.528;2023-04-06T08:21:34;11.45;;;6.03;;
79054;SDS011;68452;47.186;-1.528;2023-04-06T08:24:01;13.57;;;6.60;;
79054;SDS011;68452;47.186;-1.528;2023-04-06T08:26:28;10.98;;;5.85;;
79054;SDS011;68452;47.186;-1.528;2023-04-06T08:28:55;8.93;;;5.55;;
79054;SDS011;68452;47.186;-1.528;2023-04-06T08:31:21;9.40;;;4.33;;
79054;SDS011;68452;47.186;-1.528;2023-04-06T08:33:47;8.65;;;3.78;;
79054;SDS011;68452;47.186;-1.528;2023-04-06T08:36:14;8.88;;;3.00;;
79054;SDS011;68452;47.186;-1.528;2023-04-06T08:38:41;9.07;;;3.30;;
79054;SDS011;68452;47.186;-1.528;2023-04-06T08:41:10;8.98;;;3.58;;
79054;SDS011;68452;47.186;-1.528;2023-04-06T08:43:40;9.13;;;3.13;;
79054;SDS011;68452;47.186;-1.528;2023-04-06T08:46:17;7.45;;;3.63;;
79054;SDS011;68452;47.186;-1.528;2023-04-06T08:48:43;8.57;;;3.78;;
79054;SDS011;68452;47.186;-1.528;2023-04-06T08:51:10;11.90;;;4.32;;
79054;SDS011;68452;47.186;-1.528;2023-04-06T08:53:37;8.52;;;4.10;;
79054;SDS011;68452;47.186;-1.528;2023-04-06T08:56:04;7.43;;;4.00;;
79054;SDS011;68452;47.186;-1.528;2023-04-06T08:58:39;7.35;;;4.25;;
79054;SDS011;68452;47.186;-1.528;2023-04-06T09:01:07;8.02;;;3.92;;
79054;SDS011;68452;47.186;-1.528;2023-04-06T09:03:37;9.80;;;4.28;;
79054;SDS011;68452;47.186;-1.528;2023-04-06T09:06:07;8.05;;;4.35;;
79054;SDS011;68452;47.186;-1.528;2023-04-06T09:08:34;7.27;;;3.40;;
79054;SDS011;68452;47.186;-1.528;2023-04-06T09:11:01;5.95;;;2.72;;
79054;SDS011;68452;47.186;-1.528;2023-04-06T09:13:27;5.28;;;2.40;;
79054;SDS011;68452;47.186;-1.528;2023-04-06T09:16:03;5.95;;;2.10;;
79054;SDS011;68452;47.186;-1.528;2023-04-06T09:18:31;5.05;;;1.60;;
79054;SDS011;68452;47.186;-1.528;2023-04-06T09:21:03;6.57;;;1.40;;
79054;SDS011;68452;47.186;-1.528;2023-04-06T09:23:30;4.30;;;0.95;;
79054;SDS011;68452;47.186;-1.528;2023-04-06T09:26:10;4.78;;;0.95;;
79054;SDS011;68452;47.186;-1.528;2023-04-06T09:31:16;4.53;;;1.08;;
79054;SDS011;68452;47.186;-1.528;2023-04-06T09:33:49;3.40;;;0.77;;
79054;SDS011;68452;47.186;-1.528;2023-04-06T09:36:17;3.97;;;1.27;;
79054;SDS011;68452;47.186;-1.528;2023-04-06T09:41:26;3.42;;;1.13;;
79054;SDS011;68452;47.186;-1.528;2023-04-06T09:46:33;6.97;;;1.60;;
79054;SDS011;68452;47.186;-1.528;2023-04-06T09:49:09;7.47;;;1.90;;
79054;SDS011;68452;47.186;-1.528;2023-04-06T09:51:37;6.13;;;2.38;;
79054;SDS011;68452;47.186;-1.528;2023-04-06T09:54:04;6.10;;;2.05;;
79054;SDS011;68452;47.186;-1.528;2023-04-06T09:56:31;6.32;;;1.80;;
79054;SDS011;68452;47.186;-1.528;2023-04-06T09:59:08;7.13;;;2.03;;
79054;SDS011;68452;47.186;-1.528;2023-04-06T10:01:38;4.82;;;2.10;;
79054;SDS011;68452;47.186;-1.528;2023-04-06T10:06:37;6.25;;;1.98;;
79054;SDS011;68452;47.186;-1.528;2023-04-06T10:09:04;6.10;;;1.50;;
79054;SDS011;68452;47.186;-1.528;2023-04-06T10:11:33;4.83;;;1.63;;
79054;SDS011;68452;47.186;-1.528;2023-04-06T10:13:59;7.32;;;2.05;;
79054;SDS011;68452;47.186;-1.528;2023-04-06T10:16:26;5.97;;;1.23;;
79054;SDS011;68452;47.186;-1.528;2023-04-06T10:18:56;6.50;;;1.33;;
79054;SDS011;68452;47.186;-1.528;2023-04-06T10:21:30;4.72;;;1.35;;
79054;SDS011;68452;47.186;-1.528;2023-04-06T10:24:01;4.10;;;1.10;;
79054;SDS011;68452;47.186;-1.528;2023-04-06T10:26:27;4.22;;;0.80;;
79054;SDS011;68452;47.186;-1.528;2023-04-06T10:28:54;2.60;;;1.25;;
79054;SDS011;68452;47.186;-1.528;2023-04-06T10:31:26;6.70;;;1.00;;
79054;SDS011;68452;47.186;-1.528;2023-04-06T10:33:55;3.38;;;0.70;;
79054;SDS011;68452;47.186;-1.528;2023-04-06T10:36:23;3.87;;;0.60;;
79054;SDS011;68452;47.186;-1.528;2023-04-06T10:38:55;4.10;;;0.70;;
79054;SDS011;68452;47.186;-1.528;2023-04-06T10:41:23;2.83;;;0.60;;
79054;SDS011;68452;47.186;-1.528;2023-04-06T10:43:56;4.50;;;0.50;;
79054;SDS011;68452;47.186;-1.528;2023-04-06T10:46:26;3.95;;;0.70;;
79054;SDS011;68452;47.186;-1.528;2023-04-06T10:48:53;6.20;;;0.60;;
79054;SDS011;68452;47.186;-1.528;2023-04-06T10:51:24;3.72;;;0.60;;
79054;SDS011;68452;47.186;-1.528;2023-04-06T10:53:53;2.50;;;0.50;;
79054;SDS011;68452;47.186;-1.528;2023-04-06T10:56:23;4.10;;;1.17;;
79054;SDS011;68452;47.186;-1.528;2023-04-06T10:58:54;7.10;;;1.05;;
79054;SDS011;68452;47.186;-1.528;2023-04-06T11:01:23;4.60;;;0.93;;
79054;SDS011;68452;47.186;-1.528;2023-04-06T11:03:52;4.65;;;0.80;;
79054;SDS011;68452;47.186;-1.528;2023-04-06T11:06:23;5.18;;;0.95;;
79054;SDS011;68452;47.186;-1.528;2023-04-06T11:08:56;4.80;;;0.50;;
79054;SDS011;68452;47.186;-1.528;2023-04-06T11:11:23;3.88;;;0.80;;
79054;SDS011;68452;47.186;-1.528;2023-04-06T11:13:58;2.70;;;0.60;;
79054;SDS011;68452;47.186;-1.528;2023-04-06T11:16:29;7.03;;;1.00;;
79054;SDS011;68452;47.186;-1.528;2023-04-06T11:18:57;3.42;;;0.80;;
79054;SDS011;68452;47.186;-1.528;2023-04-06T11:21:34;2.58;;;0.73;;
79054;SDS011;68452;47.186;-1.528;2023-04-06T11:24:14;4.68;;;1.08;;
79054;SDS011;68452;47.186;-1.528;2023-04-06T11:29:19;6.20;;;0.93;;
79054;SDS011;68452;47.186;-1.528;2023-04-06T11:31:47;4.55;;;1.30;;
79054;SDS011;68452;47.186;-1.528;2023-04-06T11:34:21;8.25;;;1.10;;
79054;SDS011;68452;47.186;-1.528;2023-04-06T11:36:49;4.00;;;1.33;;
79054;SDS011;68452;47.186;-1.528;2023-04-06T11:39:22;3.93;;;1.10;;
79054;SDS011;68452;47.186;-1.528;2023-04-06T11:41:49;2.95;;;1.00;;
79054;SDS011;68452;47.186;-1.528;2023-04-06T11:44:30;2.95;;;1.10;;
79054;SDS011;68452;47.186;-1.528;2023-04-06T11:46:58;6.68;;;1.48;;
79054;SDS011;68452;47.186;-1.528;2023-04-06T11:49:27;5.15;;;1.50;;
79054;SDS011;68452;47.186;-1.528;2023-04-06T11:51:54;3.30;;;1.07;;
79054;SDS011;68452;47.186;-1.528;2023-04-06T11:56:55;4.75;;;1.27;;
79054;SDS011;68452;47.186;-1.528;2023-04-06T11:59:21;4.18;;;0.90;;
79054;SDS011;68452;47.186;-1.528;2023-04-06T12:01:48;5.38;;;1.20;;
79054;SDS011;68452;47.186;-1.528;2023-04-06T12:04:14;2.57;;;0.70;;
79054;SDS011;68452;47.186;-1.528;2023-04-06T12:06:40;4.38;;;1.10;;
79054;SDS011;68452;47.186;-1.528;2023-04-06T12:09:05;2.22;;;0.65;;
79054;SDS011;68452;47.186;-1.528;2023-04-06T12:11:31;5.05;;;0.80;;
79054;SDS011;68452;47.186;-1.528;2023-04-06T12:13:57;3.33;;;1.00;;
79054;SDS011;68452;47.186;-1.528;2023-04-06T12:16:24;4.50;;;0.70;;
79054;SDS011;68452;47.186;-1.528;2023-04-06T12:18:50;4.43;;;0.80;;
79054;SDS011;68452;47.186;-1.528;2023-04-06T12:21:16;2.43;;;0.50;;
79054;SDS011;68452;47.186;-1.528;2023-04-06T12:23:42;3.35;;;0.80;;
79054;SDS011;68452;47.186;-1.528;2023-04-06T12:26:08;3.13;;;0.88;;
79054;SDS011;68452;47.186;-1.528;2023-04-06T12:28:34;4.82;;;0.73;;
79054;SDS011;68452;47.186;-1.528;2023-04-06T12:31:00;2.27;;;0.50;;
79054;SDS011;68452;47.186;-1.528;2023-04-06T12:33:26;4.35;;;0.50;;
79054;SDS011;68452;47.186;-1.528;2023-04-06T12:35:52;2.70;;;0.40;;
79054;SDS011;68452;47.186;-1.528;2023-04-06T12:38:18;2.57;;;0.30;;
79054;SDS011;68452;47.186;-1.528;2023-04-06T12:40:45;3.85;;;0.40;;
79054;SDS011;68452;47.186;-1.528;2023-04-06T12:43:11;2.30;;;0.50;;
79054;SDS011;68452;47.186;-1.528;2023-04-06T12:45:38;3.10;;;0.50;;
79054;SDS011;68452;47.186;-1.528;2023-04-06T12:48:05;3.33;;;0.30;;
79054;SDS011;68452;47.186;-1.528;2023-04-06T12:50:31;3.65;;;0.50;;
79054;SDS011;68452;47.186;-1.528;2023-04-06T12:52:57;2.35;;;0.47;;
79054;SDS011;68452;47.186;-1.528;2023-04-06T12:55:23;3.03;;;0.50;;
79054;SDS011;68452;47.186;-1.528;2023-04-06T12:57:50;2.70;;;0.60;;
79054;SDS011;68452;47.186;-1.528;2023-04-06T13:00:16;2.45;;;0.50;;
79054;SDS011;68452;47.186;-1.528;2023-04-06T13:02:42;3.50;;;0.40;;
79054;SDS011;68452;47.186;-1.528;2023-04-06T13:05:12;3.25;;;0.70;;
79054;SDS011;68452;47.186;-1.528;2023-04-06T13:07:39;3.20;;;0.55;;
79054;SDS011;68452;47.186;-1.528;2023-04-06T13:10:05;4.70;;;0.57;;
79054;SDS011;68452;47.186;-1.528;2023-04-06T13:12:32;4.03;;;0.60;;
79054;SDS011;68452;47.186;-1.528;2023-04-06T13:14:57;3.22;;;0.80;;
79054;SDS011;68452;47.186;-1.528;2023-04-06T13:17:23;5.77;;;0.73;;
79054;SDS011;68452;47.186;-1.528;2023-04-06T13:19:52;2.78;;;0.50;;
79054;SDS011;68452;47.186;-1.528;2023-04-06T13:22:18;2.75;;;0.70;;
79054;SDS011;68452;47.186;-1.528;2023-04-06T13:24:44;2.78;;;0.50;;
79054;SDS011;68452;47.186;-1.528;2023-04-06T13:27:10;1.38;;;0.40;;
79054;SDS011;68452;47.186;-1.528;2023-04-06T13:29:36;2.47;;;0.40;;
79054;SDS011;68452;47.186;-1.528;2023-04-06T13:32:02;1.83;;;0.30;;
79054;SDS011;68452;47.186;-1.528;2023-04-06T13:34:28;3.30;;;0.40;;
79054;SDS011;68452;47.186;-1.528;2023-04-06T13:36:54;8.02;;;0.57;;
79054;SDS011;68452;47.186;-1.528;2023-04-06T13:39:20;4.13;;;0.30;;
79054;SDS011;68452;47.186;-1.528;2023-04-06T13:41:46;2.38;;;0.32;;
79054;SDS011;68452;47.186;-1.528;2023-04-06T13:44:11;2.37;;;0.70;;
79054;SDS011;68452;47.186;-1.528;2023-04-06T13:46:37;3.90;;;0.80;;
79054;SDS011;68452;47.186;-1.528;2023-04-06T13:49:03;4.45;;;0.50;;
79054;SDS011;68452;47.186;-1.528;2023-04-06T13:51:29;1.80;;;0.40;;
79054;SDS011;68452;47.186;-1.528;2023-04-06T13:53:55;3.38;;;0.43;;
79054;SDS011;68452;47.186;-1.528;2023-04-06T13:56:21;2.63;;;0.60;;
79054;SDS011;68452;47.186;-1.528;2023-04-06T13:58:47;2.53;;;0.70;;
79054;SDS011;68452;47.186;-1.528;2023-04-06T14:01:13;2.40;;;0.77;;
79054;SDS011;68452;47.186;-1.528;2023-04-06T14:03:38;4.95;;;1.17;;
79054;SDS011;68452;47.186;-1.528;2023-04-06T14:06:11;6.30;;;1.20;;
79054;SDS011;68452;47.186;-1.528;2023-04-06T14:08:37;3.17;;;0.80;;
79054;SDS011;68452;47.186;-1.528;2023-04-06T14:11:04;4.55;;;1.25;;
79054;SDS011;68452;47.186;-1.528;2023-04-06T14:13:33;5.30;;;1.13;;
79054;SDS011;68452;47.186;-1.528;2023-04-06T14:15:59;6.70;;;1.10;;
79054;SDS011;68452;47.186;-1.528;2023-04-06T14:18:25;3.47;;;0.90;;
79054;SDS011;68452;47.186;-1.528;2023-04-06T14:20:56;6.30;;;1.10;;
79054;SDS011;68452;47.186;-1.528;2023-04-06T14:23:24;4.88;;;1.35;;
79054;SDS011;68452;47.186;-1.528;2023-04-06T14:26:05;3.15;;;1.00;;
79054;SDS011;68452;47.186;-1.528;2023-04-06T14:28:33;3.47;;;0.60;;
79054;SDS011;68452;47.186;-1.528;2023-04-06T14:31:01;4.15;;;0.80;;
79054;SDS011;68452;47.186;-1.528;2023-04-06T14:33:34;2.70;;;0.68;;
79054;SDS011;68452;47.186;-1.528;2023-04-06T14:36:02;4.05;;;0.60;;
79054;SDS011;68452;47.186;-1.528;2023-04-06T14:38:29;5.10;;;0.68;;
79054;SDS011;68452;47.186;-1.528;2023-04-06T14:40:55;4.53;;;0.90;;